sensor_id;sensor_type;location;lat;lon;timestamp;pressure;altitude;pressure_sealevel;temperature;humidity
27864;BME280;15980;51.092;13.916;2023-07-22T00:08:07;98339.06;;;14.17;97.91
27864;BME280;15980;51.092;13.916;2023-07-22T00:18:07;98344.59;;;14.17;97.65
27864;BME280;15980;51.092;13.916;2023-07-22T00:28:07;98356.03;;;14.19;97.62
27864;BME280;15980;51.092;13.916;2023-07-22T00:38:08;98349.69;;;14.15;97.64
27864;BME280;15980;51.092;13.916;2023-07-22T00:48:08;98362.72;;;14.18;97.51
27864;BME280;15980;51.092;13.916;2023-07-22T00:58:09;98346.50;;;14.13;97.36
27864;BME280;15980;51.092;13.916;2023-07-22T01:08:10;98345.59;;;14.05;96.94
27864;BME280;15980;51.092;13.916;2023-07-22T01:18:10;98345.06;;;13.96;97.23
27864;BME280;15980;51.092;13.916;2023-07-22T01:28:11;98344.28;;;13.96;97.59
27864;BME280;15980;51.092;13.916;2023-07-22T01:38:11;98353.63;;;13.88;97.41
27864;BME280;15980;51.092;13.916;2023-07-22T01:48:11;98359.84;;;13.84;97.33
27864;BME280;15980;51.092;13.916;2023-07-22T01:58:11;98379.84;;;13.78;97.77
27864;BME280;15980;51.092;13.916;2023-07-22T02:08:12;98375.38;;;13.70;97.82
27864;BME280;15980;51.092;13.916;2023-07-22T02:18:12;98379.22;;;13.65;98.31
27864;BME280;15980;51.092;13.916;2023-07-22T02:28:12;98395.22;;;13.56;98.52
27864;BME280;15980;51.092;13.916;2023-07-22T02:38:13;98394.75;;;13.50;98.92
27864;BME280;15980;51.092;13.916;2023-07-22T02:48:13;98404.47;;;13.44;98.93
27864;BME280;15980;51.092;13.916;2023-07-22T02:58:13;98414.63;;;13.40;99.35
27864;BME280;15980;51.092;13.916;2023-07-22T03:08:14;98423.97;;;13.36;99.27
27864;BME280;15980;51.092;13.916;2023-07-22T03:18:14;98434.19;;;13.35;99.80
27864;BME280;15980;51.092;13.916;2023-07-22T03:28:14;98447.31;;;13.42;99.16
27864;BME280;15980;51.092;13.916;2023-07-22T03:38:15;98443.41;;;13.43;98.35
27864;BME280;15980;51.092;13.916;2023-07-22T03:48:15;98450.06;;;13.61;97.43
27864;BME280;15980;51.092;13.916;2023-07-22T03:58:15;98448.28;;;13.72;96.27
27864;BME280;15980;51.092;13.916;2023-07-22T04:08:16;98443.88;;;13.91;94.97
27864;BME280;15980;51.092;13.916;2023-07-22T04:18:17;98444.75;;;13.95;94.45
27864;BME280;15980;51.092;13.916;2023-07-22T04:28:18;98453.34;;;14.16;93.43
27864;BME280;15980;51.092;13.916;2023-07-22T04:38:18;98467.94;;;14.39;92.42
27864;BME280;15980;51.092;13.916;2023-07-22T04:48:20;98475.13;;;14.70;90.40
27864;BME280;15980;51.092;13.916;2023-07-22T04:58:21;98490.13;;;14.99;89.08
27864;BME280;15980;51.092;13.916;2023-07-22T05:08:21;98491.47;;;15.43;87.61
27864;BME280;15980;51.092;13.916;2023-07-22T05:18:22;98503.69;;;15.72;85.77
27864;BME280;15980;51.092;13.916;2023-07-22T05:28:22;98505.47;;;15.94;83.87
27864;BME280;15980;51.092;13.916;2023-07-22T05:38:22;98513.47;;;16.02;83.19
27864;BME280;15980;51.092;13.916;2023-07-22T05:48:23;98512.16;;;16.33;82.17
27864;BME280;15980;51.092;13.916;2023-07-22T05:58:23;98512.94;;;16.30;80.31
27864;BME280;15980;51.092;13.916;2023-07-22T06:08:23;98531.03;;;16.17;80.55
27864;BME280;15980;51.092;13.916;2023-07-22T06:18:23;98534.56;;;16.62;79.41
27864;BME280;15980;51.092;13.916;2023-07-22T06:28:24;98559.81;;;17.01;73.41
27864;BME280;15980;51.092;13.916;2023-07-22T06:38:24;98549.75;;;17.44;73.24
27864;BME280;15980;51.092;13.916;2023-07-22T06:48:24;98547.84;;;17.63;72.00
27864;BME280;15980;51.092;13.916;2023-07-22T06:58:24;98546.72;;;17.74;68.46
27864;BME280;15980;51.092;13.916;2023-07-22T07:08:25;98556.63;;;17.72;70.01
27864;BME280;15980;51.092;13.916;2023-07-22T07:18:25;98564.41;;;17.45;67.43
27864;BME280;15980;51.092;13.916;2023-07-22T07:28:25;98577.03;;;18.36;63.64
27864;BME280;15980;51.092;13.916;2023-07-22T07:38:26;98586.06;;;18.01;63.02
27864;BME280;15980;51.092;13.916;2023-07-22T07:48:26;98610.31;;;18.18;59.50
27864;BME280;15980;51.092;13.916;2023-07-22T07:58:26;98620.66;;;18.25;59.47
27864;BME280;15980;51.092;13.916;2023-07-22T08:08:26;98618.38;;;18.73;56.57
27864;BME280;15980;51.092;13.916;2023-07-22T08:18:27;98621.53;;;19.07;55.76
27864;BME280;15980;51.092;13.916;2023-07-22T08:28:27;98625.84;;;19.62;50.65
27864;BME280;15980;51.092;13.916;2023-07-22T08:38:27;98635.84;;;19.17;52.83
27864;BME280;15980;51.092;13.916;2023-07-22T08:48:30;98636.09;;;19.83;51.41
27864;BME280;15980;51.092;13.916;2023-07-22T08:58:30;98639.63;;;20.01;48.95
27864;BME280;15980;51.092;13.916;2023-07-22T09:08:30;98636.72;;;20.26;48.40
27864;BME280;15980;51.092;13.916;2023-07-22T09:18:33;98658.06;;;19.56;47.71
27864;BME280;15980;51.092;13.916;2023-07-22T09:28:54;98643.34;;;19.59;47.51
27864;BME280;15980;51.092;13.916;2023-07-22T09:39:02;98638.28;;;20.27;45.91
27864;BME280;15980;51.092;13.916;2023-07-22T09:49:04;98632.81;;;20.79;47.53
27864;BME280;15980;51.092;13.916;2023-07-22T09:59:04;98628.59;;;21.08;43.44
27864;BME280;15980;51.092;13.916;2023-07-22T10:09:05;98635.31;;;21.59;43.50
27864;BME280;15980;51.092;13.916;2023-07-22T10:19:08;98625.09;;;22.71;42.18
27864;BME280;15980;51.092;13.916;2023-07-22T10:29:09;98638.31;;;20.89;43.46
27864;BME280;15980;51.092;13.916;2023-07-22T10:39:25;98630.75;;;20.90;44.18
27864;BME280;15980;51.092;13.916;2023-07-22T10:49:29;98623.66;;;21.64;43.05
27864;BME280;15980;51.092;13.916;2023-07-22T10:59:49;98627.63;;;21.33;40.17
27864;BME280;15980;51.092;13.916;2023-07-22T11:09:50;98608.69;;;21.85;40.57
27864;BME280;15980;51.092;13.916;2023-07-22T11:19:50;98605.16;;;23.39;38.33
27864;BME280;15980;51.092;13.916;2023-07-22T11:29:51;98606.84;;;22.05;40.00
27864;BME280;15980;51.092;13.916;2023-07-22T11:39:51;98595.47;;;21.55;41.34
27864;BME280;15980;51.092;13.916;2023-07-22T11:49:52;98581.53;;;22.19;41.23
27864;BME280;15980;51.092;13.916;2023-07-22T11:59:53;98572.19;;;22.80;39.26
27864;BME280;15980;51.092;13.916;2023-07-22T12:09:55;98561.25;;;23.75;37.97
27864;BME280;15980;51.092;13.916;2023-07-22T12:19:55;98572.69;;;23.22;38.19
27864;BME280;15980;51.092;13.916;2023-07-22T12:29:56;98554.25;;;23.87;37.69
27864;BME280;15980;51.092;13.916;2023-07-22T12:39:56;98563.28;;;23.55;38.14
27864;BME280;15980;51.092;13.916;2023-07-22T12:49:57;98554.44;;;23.96;37.98
27864;BME280;15980;51.092;13.916;2023-07-22T12:59:57;98547.56;;;24.17;37.11
27864;BME280;15980;51.092;13.916;2023-07-22T13:09:57;98539.38;;;24.91;36.62
27864;BME280;15980;51.092;13.916;2023-07-22T13:19:58;98534.13;;;24.45;36.41
27864;BME280;15980;51.092;13.916;2023-07-22T13:29:58;98528.16;;;24.59;35.97
27864;BME280;15980;51.092;13.916;2023-07-22T13:39:58;98540.56;;;23.49;37.65
27864;BME280;15980;51.092;13.916;2023-07-22T13:49:59;98531.25;;;24.12;36.30
27864;BME280;15980;51.092;13.916;2023-07-22T13:59:59;98518.56;;;24.24;36.63
27864;BME280;15980;51.092;13.916;2023-07-22T14:09:59;98522.91;;;24.77;36.19
27864;BME280;15980;51.092;13.916;2023-07-22T14:20:00;98507.81;;;25.03;36.02
27864;BME280;15980;51.092;13.916;2023-07-22T14:30:01;98506.97;;;24.41;36.13
27864;BME280;15980;51.092;13.916;2023-07-22T14:40:01;98499.63;;;23.36;37.71
27864;BME280;15980;51.092;13.916;2023-07-22T14:50:02;98485.19;;;23.77;37.65
27864;BME280;15980;51.092;13.916;2023-07-22T15:00:03;98486.47;;;24.28;37.04
27864;BME280;15980;51.092;13.916;2023-07-22T15:10:04;98482.47;;;24.91;36.31
27864;BME280;15980;51.092;13.916;2023-07-22T15:20:05;98502.44;;;24.93;35.82
27864;BME280;15980;51.092;13.916;2023-07-22T15:30:06;98488.22;;;24.38;36.20
27864;BME280;15980;51.092;13.916;2023-07-22T15:40:07;98488.16;;;24.06;36.69
27864;BME280;15980;51.092;13.916;2023-07-22T15:50:09;98473.31;;;24.41;36.03
27864;BME280;15980;51.092;13.916;2023-07-22T16:00:09;98465.47;;;25.27;33.54
27864;BME280;15980;51.092;13.916;2023-07-22T16:10:10;98476.44;;;24.27;35.81
27864;BME280;15980;51.092;13.916;2023-07-22T16:20:11;98479.63;;;24.46;35.45
27864;BME280;15980;51.092;13.916;2023-07-22T16:30:11;98475.94;;;24.49;35.15
27864;BME280;15980;51.092;13.916;2023-07-22T16:40:11;98466.34;;;23.22;37.22
27864;BME280;15980;51.092;13.916;2023-07-22T16:50:12;98458.06;;;23.54;37.14
27864;BME280;15980;51.092;13.916;2023-07-22T17:00:12;98458.94;;;23.31;37.21
27864;BME280;15980;51.092;13.916;2023-07-22T17:10:12;98451.97;;;23.19;38.41
27864;BME280;15980;51.092;13.916;2023-07-22T17:20:13;98443.59;;;22.76;38.94
27864;BME280;15980;51.092;13.916;2023-07-22T17:30:13;98445.03;;;23.08;39.10
27864;BME280;15980;51.092;13.916;2023-07-22T17:40:14;98440.56;;;23.10;39.78
27864;BME280;15980;51.092;13.916;2023-07-22T17:50:14;98432.84;;;22.75;41.25
27864;BME280;15980;51.092;13.916;2023-07-22T18:00:14;98427.97;;;22.79;42.29
27864;BME280;15980;51.092;13.916;2023-07-22T18:10:15;98433.69;;;22.48;42.56
27864;BME280;15980;51.092;13.916;2023-07-22T18:20:15;98433.66;;;22.02;43.50
27864;BME280;15980;51.092;13.916;2023-07-22T18:30:15;98422.00;;;21.53;47.13
27864;BME280;15980;51.092;13.916;2023-07-22T18:40:16;98437.19;;;20.80;47.34
27864;BME280;15980;51.092;13.916;2023-07-22T18:50:16;98439.19;;;20.42;48.89
27864;BME280;15980;51.092;13.916;2023-07-22T19:00:16;98441.66;;;19.74;49.86
27864;BME280;15980;51.092;13.916;2023-07-22T19:10:17;98440.75;;;19.14;52.65
27864;BME280;15980;51.092;13.916;2023-07-22T19:20:17;98450.03;;;18.69;53.05
27864;BME280;15980;51.092;13.916;2023-07-22T19:30:17;98451.25;;;18.25;54.92
27864;BME280;15980;51.092;13.916;2023-07-22T19:40:18;98440.91;;;17.83;56.50
27864;BME280;15980;51.092;13.916;2023-07-22T19:50:18;98450.31;;;17.57;57.10
27864;BME280;15980;51.092;13.916;2023-07-22T20:00:19;98442.31;;;17.34;58.73
27864;BME280;15980;51.092;13.916;2023-07-22T20:10:19;98436.72;;;17.20;57.98
27864;BME280;15980;51.092;13.916;2023-07-22T20:20:20;98443.78;;;17.00;58.97
27864;BME280;15980;51.092;13.916;2023-07-22T20:30:21;98441.66;;;16.75;59.77
27864;BME280;15980;51.092;13.916;2023-07-22T20:40:22;98444.34;;;16.61;60.56
27864;BME280;15980;51.092;13.916;2023-07-22T20:50:22;98442.72;;;16.53;61.78
27864;BME280;15980;51.092;13.916;2023-07-22T21:00:23;98433.16;;;16.47;61.92
27864;BME280;15980;51.092;13.916;2023-07-22T21:10:23;98435.78;;;16.25;62.88
27864;BME280;15980;51.092;13.916;2023-07-22T21:20:24;98435.00;;;16.28;62.93
27864;BME280;15980;51.092;13.916;2023-07-22T21:30:24;98440.53;;;16.28;63.51
27864;BME280;15980;51.092;13.916;2023-07-22T21:40:24;98442.91;;;16.26;63.37
27864;BME280;15980;51.092;13.916;2023-07-22T21:50:25;98445.25;;;16.24;63.52
27864;BME280;15980;51.092;13.916;2023-07-22T22:00:25;98439.25;;;16.15;63.93
27864;BME280;15980;51.092;13.916;2023-07-22T22:10:26;98447.84;;;16.03;64.39
27864;BME280;15980;51.092;13.916;2023-07-22T22:20:26;98447.38;;;15.94;64.71
27864;BME280;15980;51.092;13.916;2023-07-22T22:30:27;98437.44;;;15.89;65.54
27864;BME280;15980;51.092;13.916;2023-07-22T22:40:27;98440.13;;;15.79;65.27
27864;BME280;15980;51.092;13.916;2023-07-22T22:50:28;98445.25;;;15.77;65.32
27864;BME280;15980;51.092;13.916;2023-07-22T23:00:30;98438.94;;;15.80;65.27
27864;BME280;15980;51.092;13.916;2023-07-22T23:10:30;98440.47;;;15.74;65.47
27864;BME280;15980;51.092;13.916;2023-07-22T23:20:31;98432.59;;;15.76;65.63
27864;BME280;15980;51.092;13.916;2023-07-22T23:30:31;98417.50;;;15.69;65.58
27864;BME280;15980;51.092;13.916;2023-07-22T23:40:31;98413.16;;;15.68;65.51
27864;BME280;15980;51.092;13.916;2023-07-22T23:50:32;98413.38;;;15.56;66.10
